createdAt,value
2019-03-29T00:01:25.832Z,17.90
2019-03-29T00:03:56.285Z,14.93
2019-03-29T00:06:26.637Z,16.57
2019-03-29T00:08:57.233Z,17.00
2019-03-29T00:11:27.594Z,14.30
2019-03-29T00:13:58.250Z,13.20
2019-03-29T00:16:28.608Z,13.37
2019-03-29T00:18:58.975Z,16.67
2019-03-29T00:21:29.330Z,11.20
2019-03-29T00:24:06.586Z,13.87
2019-03-29T00:26:31.762Z,13.30
2019-03-29T00:29:03.056Z,13.70
2019-03-29T00:31:33.577Z,10.27
2019-03-29T00:34:03.939Z,10.23
2019-03-29T00:36:34.314Z,11.37
2019-03-29T00:39:05.819Z,12.87
2019-03-29T00:41:36.194Z,15.83
2019-03-29T00:44:06.567Z,11.30
2019-03-29T00:46:37.944Z,8.70
2019-03-29T00:49:08.421Z,8.53
2019-03-29T00:51:40.226Z,10.17
2019-03-29T00:54:11.092Z,9.37
2019-03-29T00:56:41.443Z,12.47
2019-03-29T00:59:12.095Z,8.43
2019-03-29T01:01:42.458Z,9.47
2019-03-29T01:04:14.284Z,10.43
2019-03-29T01:06:44.643Z,8.33
2019-03-29T01:09:14.986Z,10.30
2019-03-29T01:11:46.817Z,12.00
2019-03-29T01:14:20.738Z,10.63
2019-03-29T01:16:51.095Z,8.67
2019-03-29T01:19:21.457Z,9.00
2019-03-29T01:21:51.823Z,8.10
2019-03-29T01:24:22.327Z,10.33
2019-03-29T01:26:53.103Z,10.23
2019-03-29T01:29:23.624Z,11.43
2019-03-29T01:31:53.978Z,9.43
2019-03-29T01:34:24.346Z,10.40
2019-03-29T01:36:54.700Z,11.63
2019-03-29T01:39:25.072Z,10.10
2019-03-29T01:41:55.443Z,10.43
2019-03-29T01:44:25.795Z,9.80
2019-03-29T01:46:56.199Z,15.97
2019-03-29T01:49:26.572Z,17.30
2019-03-29T01:51:56.915Z,8.40
2019-03-29T01:54:27.267Z,9.83
2019-03-29T01:56:57.594Z,10.10
2019-03-29T01:59:28.026Z,14.23
2019-03-29T02:01:58.393Z,14.43
2019-03-29T02:04:30.690Z,12.87
2019-03-29T02:07:01.048Z,16.30
2019-03-29T02:09:31.414Z,9.70
2019-03-29T02:12:02.058Z,15.13
2019-03-29T02:14:32.404Z,12.03
2019-03-29T02:17:02.926Z,10.20
2019-03-29T02:19:33.300Z,8.47
2019-03-29T02:22:03.681Z,9.17
2019-03-29T02:24:36.794Z,8.47
2019-03-29T02:27:07.226Z,8.00
2019-03-29T02:29:37.571Z,9.37
2019-03-29T02:32:07.971Z,6.87
2019-03-29T02:34:38.300Z,7.53
2019-03-29T02:37:09.000Z,11.37
2019-03-29T02:39:39.360Z,7.57
2019-03-29T02:42:09.725Z,12.07
2019-03-29T02:44:40.095Z,9.93
2019-03-29T02:47:10.409Z,7.93
2019-03-29T02:49:42.708Z,8.67
2019-03-29T02:52:15.069Z,7.53
2019-03-29T02:54:47.320Z,7.60
2019-03-29T02:57:19.683Z,9.03
2019-03-29T02:59:53.014Z,9.00
2019-03-29T03:02:26.529Z,7.53
2019-03-29T03:04:59.057Z,9.47
2019-03-29T03:07:31.428Z,10.80
2019-03-29T03:10:08.005Z,12.83
2019-03-29T03:12:40.394Z,12.57
2019-03-29T03:15:12.666Z,14.53
2019-03-29T03:17:44.961Z,25.33
2019-03-29T03:20:17.330Z,11.23
2019-03-29T03:22:49.681Z,10.07
2019-03-29T03:25:21.978Z,10.00
2019-03-29T03:27:54.326Z,9.93
2019-03-29T03:30:26.697Z,10.50
2019-03-29T03:32:59.008Z,11.70
2019-03-29T03:35:31.286Z,11.93
2019-03-29T03:38:03.606Z,11.37
2019-03-29T03:40:36.006Z,9.50
2019-03-29T03:43:08.374Z,8.73
2019-03-29T03:45:40.748Z,10.30
2019-03-29T03:48:13.084Z,8.07
2019-03-29T03:50:45.429Z,6.90
2019-03-29T03:53:17.817Z,15.67
2019-03-29T03:55:50.115Z,12.57
2019-03-29T03:58:22.431Z,11.43
2019-03-29T04:00:57.824Z,10.83
2019-03-29T04:03:30.291Z,9.43
2019-03-29T04:06:02.597Z,9.70
2019-03-29T04:08:34.918Z,9.47
2019-03-29T04:11:07.217Z,9.67
2019-03-29T04:13:39.636Z,11.17
2019-03-29T04:16:11.901Z,9.37
2019-03-29T04:18:44.258Z,10.77
2019-03-29T04:21:16.549Z,8.57
2019-03-29T04:23:48.920Z,9.80
2019-03-29T04:26:21.505Z,10.53
2019-03-29T04:29:04.443Z,12.00
2019-03-29T04:31:28.072Z,9.60
2019-03-29T04:34:00.380Z,10.33
2019-03-29T04:36:32.730Z,12.60
2019-03-29T04:39:05.936Z,10.03
2019-03-29T04:41:38.201Z,13.40
2019-03-29T04:44:11.045Z,17.63
2019-03-29T04:46:43.370Z,21.33
2019-03-29T04:49:15.820Z,21.13
2019-03-29T04:51:48.194Z,17.63
2019-03-29T04:54:20.518Z,15.33
2019-03-29T04:56:52.882Z,19.27
2019-03-29T04:59:25.628Z,15.70
2019-03-29T05:01:57.915Z,12.77
2019-03-29T05:04:30.227Z,14.87
2019-03-29T05:07:02.623Z,12.03
2019-03-29T05:09:34.973Z,11.93
2019-03-29T05:12:07.303Z,12.97
2019-03-29T05:14:39.617Z,16.67
2019-03-29T05:17:12.194Z,12.57
2019-03-29T05:19:44.779Z,13.43
2019-03-29T05:22:15.335Z,14.20
2019-03-29T05:24:46.810Z,14.57
2019-03-29T05:27:17.253Z,16.37
2019-03-29T05:29:47.842Z,13.30
2019-03-29T05:32:18.365Z,17.47
2019-03-29T05:34:48.762Z,16.90
2019-03-29T05:37:19.232Z,15.77
2019-03-29T05:39:49.700Z,16.27
2019-03-29T05:42:20.246Z,16.87
2019-03-29T05:44:50.652Z,18.40
2019-03-29T05:47:21.030Z,15.07
2019-03-29T05:49:51.404Z,20.77
2019-03-29T05:52:21.926Z,15.43
2019-03-29T05:54:52.309Z,17.80
2019-03-29T05:57:22.685Z,17.30
2019-03-29T05:59:53.054Z,17.63
2019-03-29T06:02:23.636Z,29.63
2019-03-29T06:04:54.017Z,34.57
2019-03-29T06:07:24.394Z,20.37
2019-03-29T06:09:54.763Z,20.33
2019-03-29T06:12:27.267Z,17.83
2019-03-29T06:14:57.679Z,15.80
2019-03-29T06:17:28.047Z,16.23
2019-03-29T06:19:59.154Z,19.40
2019-03-29T06:22:29.932Z,19.10
2019-03-29T06:25:00.330Z,19.07
2019-03-29T06:27:31.640Z,22.13
2019-03-29T06:30:02.067Z,17.37
2019-03-29T06:32:33.525Z,21.60
2019-03-29T06:35:06.001Z,16.30
2019-03-29T06:37:36.872Z,17.93
2019-03-29T06:40:09.896Z,18.87
2019-03-29T06:42:40.273Z,18.13
2019-03-29T06:45:10.665Z,16.27
2019-03-29T06:47:41.041Z,19.17
2019-03-29T06:50:13.942Z,15.17
2019-03-29T06:52:43.498Z,19.10
2019-03-29T06:55:13.887Z,18.03
2019-03-29T06:57:44.245Z,15.77
2019-03-29T07:00:14.595Z,17.93
2019-03-29T07:02:44.984Z,18.30
2019-03-29T07:05:15.360Z,18.93
2019-03-29T07:07:45.751Z,15.90
2019-03-29T07:10:16.187Z,19.13
2019-03-29T07:12:46.773Z,16.67
2019-03-29T07:15:17.157Z,17.70
2019-03-29T07:17:47.531Z,20.83
2019-03-29T07:20:17.929Z,16.23
2019-03-29T07:22:48.311Z,14.30
2019-03-29T07:25:18.760Z,17.00
2019-03-29T07:27:52.202Z,15.43
2019-03-29T07:30:21.233Z,10.47
2019-03-29T07:32:51.623Z,15.37
2019-03-29T07:35:22.000Z,11.77
2019-03-29T07:37:52.443Z,12.73
2019-03-29T07:40:22.819Z,11.13
2019-03-29T07:42:53.206Z,10.80
2019-03-29T07:45:23.567Z,13.80
2019-03-29T07:47:53.957Z,13.00
2019-03-29T07:50:24.474Z,13.00
2019-03-29T07:52:54.854Z,12.40
2019-03-29T07:55:25.195Z,12.30
2019-03-29T07:57:55.553Z,12.63
2019-03-29T08:00:25.960Z,11.97
2019-03-29T08:02:56.349Z,10.50
2019-03-29T08:05:26.725Z,8.10
2019-03-29T08:07:58.176Z,9.17
2019-03-29T08:10:31.183Z,10.13
2019-03-29T08:13:00.621Z,7.87
2019-03-29T08:15:30.971Z,7.67
2019-03-29T08:18:01.881Z,7.67
2019-03-29T08:20:43.874Z,8.03
2019-03-29T08:23:05.573Z,6.40
2019-03-29T08:25:37.006Z,4.77
2019-03-29T08:28:07.375Z,9.27
2019-03-29T08:30:38.674Z,5.17
2019-03-29T08:33:09.031Z,6.20
2019-03-29T08:35:39.407Z,6.80
2019-03-29T08:38:09.771Z,5.87
2019-03-29T08:40:40.130Z,5.40
2019-03-29T08:43:10.786Z,7.10
2019-03-29T08:45:41.155Z,7.93
2019-03-29T08:48:11.540Z,6.90
2019-03-29T08:50:41.917Z,11.47
2019-03-29T08:53:12.362Z,6.87
2019-03-29T08:55:45.910Z,5.57
2019-03-29T08:58:16.085Z,6.23
2019-03-29T09:00:46.439Z,5.47
2019-03-29T09:03:17.879Z,5.83
2019-03-29T09:05:48.504Z,6.17
2019-03-29T09:08:18.866Z,5.73
2019-03-29T09:10:49.286Z,6.83
2019-03-29T09:13:19.902Z,7.53
2019-03-29T09:15:51.517Z,10.13
2019-03-29T09:18:21.857Z,7.00
2019-03-29T09:20:52.202Z,5.57
2019-03-29T09:23:22.583Z,5.60
2019-03-29T09:25:52.947Z,6.13
2019-03-29T09:28:23.332Z,7.10
2019-03-29T09:30:56.330Z,6.07
2019-03-29T09:33:25.739Z,7.10
2019-03-29T09:35:56.088Z,6.13
2019-03-29T09:38:26.438Z,5.93
2019-03-29T09:40:59.075Z,7.33
2019-03-29T09:43:28.932Z,7.17
2019-03-29T09:45:59.302Z,9.37
2019-03-29T09:48:30.530Z,5.60
2019-03-29T09:51:01.073Z,6.27
2019-03-29T09:53:31.415Z,8.70
2019-03-29T09:56:01.780Z,6.10
2019-03-29T09:58:31.970Z,5.60
2019-03-29T10:01:02.436Z,6.87
2019-03-29T10:03:32.795Z,7.57
2019-03-29T10:06:03.287Z,5.43
2019-03-29T10:08:33.640Z,5.93
2019-03-29T10:11:04.019Z,7.17
2019-03-29T10:13:34.417Z,11.87
2019-03-29T10:16:04.787Z,7.97
2019-03-29T10:18:35.133Z,5.83
2019-03-29T10:21:05.485Z,7.63
2019-03-29T10:23:35.884Z,6.87
2019-03-29T10:26:06.268Z,6.53
2019-03-29T10:28:36.670Z,6.43
2019-03-29T10:31:07.042Z,7.97
2019-03-29T10:33:37.642Z,6.53
2019-03-29T10:36:08.047Z,6.20
2019-03-29T10:38:38.393Z,6.07
2019-03-29T10:41:08.886Z,5.90
2019-03-29T10:43:39.221Z,6.63
2019-03-29T10:46:09.646Z,7.67
2019-03-29T10:48:40.013Z,5.03
2019-03-29T10:51:10.709Z,6.87
2019-03-29T10:53:41.447Z,5.83
2019-03-29T10:56:12.477Z,5.50
2019-03-29T10:58:45.051Z,4.77
2019-03-29T11:01:16.728Z,4.93
2019-03-29T11:03:47.203Z,7.17
2019-03-29T11:06:18.365Z,5.53
2019-03-29T11:08:49.047Z,6.77
2019-03-29T11:11:19.628Z,4.83
2019-03-29T11:13:50.270Z,4.37
2019-03-29T11:16:20.760Z,5.27
2019-03-29T11:18:51.121Z,5.97
2019-03-29T11:21:21.486Z,5.47
2019-03-29T11:23:51.866Z,9.80
2019-03-29T11:26:22.658Z,7.23
2019-03-29T11:28:53.051Z,7.83
2019-03-29T11:31:25.544Z,6.67
2019-03-29T11:33:58.570Z,6.47
2019-03-29T11:36:28.933Z,5.10
2019-03-29T11:38:59.367Z,7.33
2019-03-29T11:41:29.916Z,10.33
2019-03-29T11:44:00.275Z,6.80
2019-03-29T11:46:30.639Z,7.83
2019-03-29T11:49:01.000Z,10.97
2019-03-29T11:51:31.345Z,7.10
2019-03-29T11:54:01.739Z,5.80
2019-03-29T11:56:32.097Z,8.57
2019-03-29T11:59:02.468Z,7.57
2019-03-29T12:01:32.874Z,7.73
2019-03-29T12:04:03.305Z,8.00
2019-03-29T12:06:34.644Z,9.87
2019-03-29T12:09:06.964Z,8.07
2019-03-29T12:11:37.477Z,8.73
2019-03-29T12:14:08.869Z,7.23
2019-03-29T12:16:39.199Z,8.23
2019-03-29T12:19:09.581Z,8.07
2019-03-29T12:21:40.107Z,8.23
2019-03-29T12:24:10.666Z,8.93
2019-03-29T12:26:41.025Z,9.20
2019-03-29T12:29:11.562Z,7.70
2019-03-29T12:31:48.560Z,8.30
2019-03-29T12:34:19.145Z,6.70
2019-03-29T12:36:49.774Z,6.83
2019-03-29T12:39:20.230Z,7.23
2019-03-29T12:41:50.664Z,7.33
2019-03-29T12:44:21.029Z,6.13
2019-03-29T12:46:51.624Z,9.30
2019-03-29T12:49:21.971Z,6.83
2019-03-29T12:51:52.334Z,6.03
2019-03-29T12:54:22.772Z,7.90
2019-03-29T12:56:53.498Z,5.73
2019-03-29T12:59:23.948Z,6.57
2019-03-29T13:01:54.325Z,6.23
2019-03-29T13:04:26.077Z,5.40
2019-03-29T13:06:56.435Z,6.47
2019-03-29T13:09:26.811Z,5.23
2019-03-29T13:11:57.222Z,6.00
2019-03-29T13:14:27.508Z,6.67
2019-03-29T13:16:57.877Z,5.80
2019-03-29T13:19:28.229Z,5.50
2019-03-29T13:21:58.590Z,5.40
2019-03-29T13:24:28.976Z,5.10
2019-03-29T13:26:59.458Z,7.50
2019-03-29T13:29:30.113Z,6.70
2019-03-29T13:32:00.572Z,7.37
2019-03-29T13:34:30.931Z,5.77
2019-03-29T13:37:01.469Z,8.47
2019-03-29T13:39:32.090Z,5.50
2019-03-29T13:42:02.504Z,8.97
2019-03-29T13:44:32.883Z,7.33
2019-03-29T13:47:04.384Z,5.70
2019-03-29T13:49:34.774Z,5.20
2019-03-29T13:52:05.132Z,5.80
2019-03-29T13:54:35.518Z,6.67
2019-03-29T13:57:08.231Z,4.87
2019-03-29T13:59:38.729Z,5.93
2019-03-29T14:02:11.448Z,4.93
2019-03-29T14:04:41.847Z,7.43
2019-03-29T14:07:12.218Z,10.83
2019-03-29T14:09:42.570Z,7.37
2019-03-29T14:12:13.105Z,8.83
2019-03-29T14:14:43.449Z,6.73
2019-03-29T14:17:13.787Z,8.70
2019-03-29T14:19:44.411Z,5.87
2019-03-29T14:22:14.760Z,8.03
2019-03-29T14:24:45.137Z,6.63
2019-03-29T14:27:15.484Z,6.87
2019-03-29T14:29:45.840Z,6.83
2019-03-29T14:32:16.259Z,6.40
2019-03-29T14:34:46.816Z,4.60
2019-03-29T14:37:18.238Z,6.27
2019-03-29T14:39:48.753Z,5.90
2019-03-29T14:42:19.338Z,6.37
2019-03-29T14:44:52.733Z,7.33
2019-03-29T14:47:21.839Z,9.13
2019-03-29T14:49:52.228Z,6.30
2019-03-29T14:52:22.669Z,7.70
2019-03-29T14:54:53.097Z,6.90
2019-03-29T14:57:23.697Z,7.40
2019-03-29T14:59:54.074Z,6.23
2019-03-29T15:02:25.451Z,6.40
2019-03-29T15:04:55.802Z,14.37
2019-03-29T15:07:26.156Z,11.40
2019-03-29T15:09:56.531Z,26.30
2019-03-29T15:12:26.871Z,9.23
2019-03-29T15:15:05.889Z,6.53
2019-03-29T15:17:31.782Z,7.27
2019-03-29T15:20:02.204Z,7.80
2019-03-29T15:22:33.222Z,6.27
2019-03-29T15:25:04.014Z,6.17
2019-03-29T15:27:34.374Z,9.00
2019-03-29T15:30:06.777Z,9.13
2019-03-29T15:32:38.584Z,8.63
2019-03-29T15:35:08.944Z,6.77
2019-03-29T15:37:39.345Z,9.07
2019-03-29T15:40:09.710Z,8.70
2019-03-29T15:42:41.521Z,8.30
2019-03-29T15:45:20.285Z,91.33
2019-03-29T15:47:43.990Z,21.00
2019-03-29T15:50:14.370Z,16.20
2019-03-29T15:52:44.778Z,11.87
2019-03-29T15:55:15.201Z,7.13
2019-03-29T15:57:45.590Z,26.13
2019-03-29T16:00:17.041Z,10.30
2019-03-29T16:02:48.857Z,15.63
2019-03-29T16:05:21.980Z,41.10
2019-03-29T16:07:53.362Z,33.30
2019-03-29T16:10:24.736Z,39.63
2019-03-29T16:12:55.088Z,28.83
2019-03-29T16:15:34.209Z,47.30
2019-03-29T16:17:58.943Z,19.87
2019-03-29T16:20:29.693Z,35.13
2019-03-29T16:23:00.105Z,23.07
2019-03-29T16:25:30.480Z,18.87
2019-03-29T16:28:02.104Z,12.50
2019-03-29T16:30:32.479Z,11.00
2019-03-29T16:33:02.845Z,6.60
2019-03-29T16:35:33.215Z,16.63
2019-03-29T16:38:03.660Z,18.90
2019-03-29T16:40:34.027Z,9.87
2019-03-29T16:43:04.421Z,10.37
2019-03-29T16:45:47.357Z,14.97
2019-03-29T16:48:07.242Z,12.27
2019-03-29T16:50:38.638Z,9.73
2019-03-29T16:53:09.105Z,9.93
2019-03-29T16:55:39.565Z,11.57
2019-03-29T16:58:10.256Z,11.50
2019-03-29T17:00:40.662Z,11.33
2019-03-29T17:03:11.071Z,8.53
2019-03-29T17:05:42.203Z,7.03
2019-03-29T17:08:13.655Z,14.37
2019-03-29T17:10:44.033Z,9.27
2019-03-29T17:13:14.446Z,9.73
2019-03-29T17:15:45.480Z,11.93
2019-03-29T17:18:28.544Z,25.20
2019-03-29T17:20:48.041Z,11.07
2019-03-29T17:23:18.398Z,14.60
2019-03-29T17:25:48.772Z,13.40
2019-03-29T17:28:19.157Z,16.57
2019-03-29T17:30:51.218Z,11.33
2019-03-29T17:33:22.544Z,10.83
2019-03-29T17:35:53.040Z,9.10
2019-03-29T17:38:23.501Z,11.70
2019-03-29T17:40:54.334Z,9.73
2019-03-29T17:43:24.727Z,8.83
2019-03-29T17:45:55.284Z,10.40
2019-03-29T17:48:25.597Z,10.80
2019-03-29T17:50:55.962Z,11.00
2019-03-29T17:53:26.335Z,8.43
2019-03-29T17:55:56.714Z,8.37
2019-03-29T17:58:27.073Z,8.20
2019-03-29T18:00:58.031Z,11.63
2019-03-29T18:03:28.466Z,9.77
2019-03-29T18:05:59.164Z,12.03
2019-03-29T18:08:29.795Z,13.80
2019-03-29T18:11:00.886Z,11.53
2019-03-29T18:13:31.619Z,10.63
2019-03-29T18:16:02.647Z,9.17
2019-03-29T18:18:33.787Z,9.43
2019-03-29T18:21:04.174Z,12.97
2019-03-29T18:23:34.566Z,9.87
2019-03-29T18:26:04.986Z,16.53
2019-03-29T18:28:37.984Z,9.63
2019-03-29T18:31:08.709Z,10.80
2019-03-29T18:33:39.169Z,10.47
2019-03-29T18:36:09.541Z,11.83
2019-03-29T18:38:40.081Z,9.73
2019-03-29T18:41:11.041Z,9.07
2019-03-29T18:43:41.364Z,10.73
2019-03-29T18:46:12.226Z,11.63
2019-03-29T18:48:42.985Z,10.43
2019-03-29T18:51:13.355Z,7.67
2019-03-29T18:53:44.106Z,12.30
2019-03-29T18:56:14.748Z,12.83
2019-03-29T18:58:45.388Z,9.30
2019-03-29T19:01:15.753Z,10.73
2019-03-29T19:03:46.663Z,7.90
2019-03-29T19:06:17.371Z,7.80
2019-03-29T19:08:48.861Z,8.67
2019-03-29T19:11:20.742Z,8.83
2019-03-29T19:13:51.522Z,8.83
2019-03-29T19:16:21.981Z,8.80
2019-03-29T19:18:52.628Z,7.93
2019-03-29T19:21:25.675Z,6.93
2019-03-29T19:23:56.268Z,9.43
2019-03-29T19:26:27.213Z,7.57
2019-03-29T19:28:57.782Z,9.13
2019-03-29T19:31:28.231Z,12.13
2019-03-29T19:34:00.362Z,10.30
2019-03-29T19:36:31.125Z,9.40
2019-03-29T19:39:02.107Z,11.43
2019-03-29T19:41:33.133Z,11.27
2019-03-29T19:44:03.783Z,10.50
2019-03-29T19:46:34.726Z,12.67
2019-03-29T19:49:05.124Z,10.40
2019-03-29T19:51:36.368Z,11.20
2019-03-29T19:54:07.859Z,13.37
2019-03-29T19:56:38.983Z,11.53
2019-03-29T19:59:11.129Z,15.30
2019-03-29T20:01:41.691Z,12.13
2019-03-29T20:04:12.107Z,10.53
2019-03-29T20:06:42.486Z,13.93
2019-03-29T20:09:12.841Z,10.00
2019-03-29T20:11:43.210Z,12.13
2019-03-29T20:14:13.610Z,13.33
2019-03-29T20:16:44.876Z,12.40
2019-03-29T20:19:15.280Z,12.53
2019-03-29T20:21:45.847Z,11.73
2019-03-29T20:24:17.880Z,13.87
2019-03-29T20:26:48.606Z,12.93
2019-03-29T20:29:19.206Z,11.40
2019-03-29T20:31:50.935Z,11.07
2019-03-29T20:34:22.424Z,12.73
2019-03-29T20:36:53.956Z,12.17
2019-03-29T20:39:26.868Z,13.90
2019-03-29T20:41:57.721Z,16.13
2019-03-29T20:44:28.185Z,12.43
2019-03-29T20:46:58.631Z,14.13
2019-03-29T20:49:28.983Z,11.87
2019-03-29T20:51:59.374Z,10.50
2019-03-29T20:54:30.005Z,13.27
2019-03-29T20:57:00.356Z,13.30
2019-03-29T20:59:30.728Z,11.77
2019-03-29T21:02:01.115Z,13.33
2019-03-29T21:04:31.523Z,11.40
2019-03-29T21:07:02.607Z,10.23
2019-03-29T21:09:33.231Z,14.27
2019-03-29T21:12:03.614Z,10.20
2019-03-29T21:14:34.013Z,11.73
2019-03-29T21:17:04.396Z,10.73
2019-03-29T21:19:35.459Z,9.57
2019-03-29T21:22:05.855Z,11.57
2019-03-29T21:24:38.602Z,10.17
2019-03-29T21:27:09.005Z,11.97
2019-03-29T21:29:40.515Z,11.50
2019-03-29T21:32:10.892Z,9.40
2019-03-29T21:34:41.293Z,12.00
2019-03-29T21:37:11.693Z,10.80
2019-03-29T21:39:42.081Z,14.90
2019-03-29T21:42:12.741Z,14.63
2019-03-29T21:44:45.241Z,12.60
2019-03-29T21:47:15.243Z,12.97
2019-03-29T21:49:45.658Z,10.87
2019-03-29T21:52:16.101Z,9.67
2019-03-29T21:54:46.476Z,14.57
2019-03-29T21:57:16.871Z,17.87
2019-03-29T21:59:47.467Z,13.70
2019-03-29T22:02:21.316Z,15.17
2019-03-29T22:04:51.044Z,16.47
2019-03-29T22:07:21.438Z,13.37
2019-03-29T22:09:53.262Z,14.33
2019-03-29T22:12:23.638Z,14.97
2019-03-29T22:14:54.006Z,12.70
2019-03-29T22:17:24.371Z,12.87
2019-03-29T22:19:54.760Z,13.40
2019-03-29T22:22:25.147Z,11.20
2019-03-29T22:24:55.637Z,13.93
2019-03-29T22:27:25.981Z,10.93
2019-03-29T22:29:56.335Z,12.23
2019-03-29T22:32:26.714Z,10.90
2019-03-29T22:34:57.071Z,17.67
2019-03-29T22:37:28.409Z,33.33
2019-03-29T22:39:58.782Z,33.67
2019-03-29T22:42:29.162Z,33.00
2019-03-29T22:44:59.542Z,34.40
2019-03-29T22:47:30.119Z,29.37
2019-03-29T22:50:01.351Z,27.37
2019-03-29T22:52:31.729Z,26.10
2019-03-29T22:55:02.130Z,28.03
2019-03-29T22:57:32.507Z,25.43
2019-03-29T23:00:07.123Z,25.17
2019-03-29T23:02:37.737Z,23.03
2019-03-29T23:05:08.114Z,35.33
2019-03-29T23:07:38.501Z,23.00
2019-03-29T23:10:08.862Z,28.13
2019-03-29T23:12:39.279Z,28.43
2019-03-29T23:15:09.600Z,28.33
2019-03-29T23:17:47.490Z,28.47
2019-03-29T23:20:17.850Z,24.80
2019-03-29T23:22:49.034Z,34.90
2019-03-29T23:25:19.399Z,34.83
2019-03-29T23:27:49.772Z,28.50
2019-03-29T23:30:21.316Z,31.83
2019-03-29T23:32:51.665Z,26.77
2019-03-29T23:35:22.037Z,27.53
2019-03-29T23:37:52.438Z,23.90
2019-03-29T23:40:22.822Z,20.63
2019-03-29T23:42:53.207Z,19.93
2019-03-29T23:45:24.640Z,17.30
2019-03-29T23:47:56.622Z,19.10
2019-03-29T23:50:26.983Z,17.73
2019-03-29T23:52:57.352Z,19.17
2019-03-29T23:55:27.714Z,16.97
2019-03-29T23:57:58.078Z,15.77
